createdAt,value
2018-08-10T00:00:52.114Z,1.40
2018-08-10T00:03:20.508Z,1.60
2018-08-10T00:05:48.997Z,1.47
2018-08-10T00:08:17.343Z,2.00
2018-08-10T00:10:45.703Z,1.53
2018-08-10T00:13:14.080Z,1.93
2018-08-10T00:15:42.457Z,1.30
2018-08-10T00:18:10.860Z,1.47
2018-08-10T00:20:39.267Z,1.77
2018-08-10T00:23:07.783Z,1.57
2018-08-10T00:25:36.224Z,1.70
2018-08-10T00:28:04.602Z,1.60
2018-08-10T00:30:32.976Z,2.00
2018-08-10T00:33:01.333Z,1.90
2018-08-10T00:35:29.688Z,1.90
2018-08-10T00:37:58.086Z,2.10
2018-08-10T00:40:26.435Z,2.10
2018-08-10T00:42:54.819Z,2.10
2018-08-10T00:45:23.155Z,2.73
2018-08-10T00:47:51.523Z,2.33
2018-08-10T00:50:19.908Z,2.60
2018-08-10T00:52:48.777Z,2.60
2018-08-10T00:55:18.258Z,2.57
2018-08-10T00:57:47.047Z,3.30
2018-08-10T01:00:21.967Z,2.87
2018-08-10T01:02:50.763Z,4.03
2018-08-10T01:05:19.182Z,4.07
2018-08-10T01:07:47.550Z,3.20
2018-08-10T01:10:17.357Z,3.70
2018-08-10T01:12:45.739Z,3.63
2018-08-10T01:15:15.308Z,3.93
2018-08-10T01:17:44.240Z,3.70
2018-08-10T01:20:15.692Z,3.93
2018-08-10T01:22:49.073Z,3.87
2018-08-10T01:25:18.727Z,3.70
2018-08-10T01:27:52.279Z,5.67
2018-08-10T01:30:20.646Z,4.47
2018-08-10T01:32:49.144Z,4.90
2018-08-10T01:35:17.558Z,5.17
2018-08-10T01:37:45.936Z,4.77
2018-08-10T01:40:14.375Z,4.90
2018-08-10T01:42:42.737Z,5.10
2018-08-10T01:45:11.225Z,5.43
2018-08-10T01:47:39.584Z,4.90
2018-08-10T01:50:08.668Z,3.80
2018-08-10T01:52:37.439Z,4.60
2018-08-10T01:55:06.023Z,3.90
2018-08-10T01:57:34.491Z,4.13
2018-08-10T02:00:03.028Z,4.30
2018-08-10T02:02:31.590Z,3.97
2018-08-10T02:05:00.034Z,3.60
2018-08-10T02:07:28.469Z,3.80
2018-08-10T02:09:56.861Z,4.80
2018-08-10T02:12:25.311Z,4.13
2018-08-10T02:14:54.050Z,4.17
2018-08-10T02:17:22.436Z,4.27
2018-08-10T02:19:50.840Z,3.90
2018-08-10T02:22:19.438Z,4.30
2018-08-10T02:24:47.969Z,3.87
2018-08-10T02:27:16.406Z,4.50
2018-08-10T02:29:44.863Z,4.90
2018-08-10T02:32:13.410Z,4.90
2018-08-10T02:34:41.731Z,4.80
2018-08-10T02:37:10.129Z,4.40
2018-08-10T02:39:38.417Z,3.77
2018-08-10T02:42:06.960Z,4.47
2018-08-10T02:44:35.380Z,4.60
2018-08-10T02:47:03.752Z,4.63
2018-08-10T02:49:32.075Z,4.67
2018-08-10T02:52:00.688Z,4.47
2018-08-10T02:54:29.360Z,5.40
2018-08-10T02:56:57.966Z,4.30
2018-08-10T02:59:26.322Z,4.40
2018-08-10T03:01:55.993Z,4.30
2018-08-10T03:04:24.326Z,4.10
2018-08-10T03:06:52.755Z,4.20
2018-08-10T03:09:21.126Z,4.20
2018-08-10T03:11:49.526Z,3.70
2018-08-10T03:14:18.095Z,4.40
2018-08-10T03:16:46.432Z,3.50
2018-08-10T03:19:14.736Z,4.33
2018-08-10T03:21:43.066Z,4.37
2018-08-10T03:24:11.351Z,4.57
2018-08-10T03:26:40.820Z,4.60
2018-08-10T03:29:09.125Z,4.20
2018-08-10T03:31:37.454Z,4.90
2018-08-10T03:34:05.813Z,4.23
2018-08-10T03:36:34.147Z,5.00
2018-08-10T03:39:02.521Z,7.00
2018-08-10T03:41:30.863Z,6.30
2018-08-10T03:43:59.271Z,5.97
2018-08-10T03:46:27.587Z,6.20
2018-08-10T03:48:56.046Z,6.30
2018-08-10T03:51:25.491Z,5.13
2018-08-10T03:53:53.812Z,5.80
2018-08-10T03:56:22.213Z,5.83
2018-08-10T03:58:50.599Z,6.03
2018-08-10T04:01:19.080Z,6.13
2018-08-10T04:03:47.451Z,6.60
2018-08-10T04:06:15.876Z,6.70
2018-08-10T04:08:44.255Z,7.00
2018-08-10T04:11:12.595Z,6.20
2018-08-10T04:13:41.075Z,6.50
2018-08-10T04:16:09.698Z,6.93
2018-08-10T04:18:38.100Z,6.20
2018-08-10T04:21:06.743Z,5.80
2018-08-10T04:23:35.204Z,6.23
2018-08-10T04:26:03.727Z,6.30
2018-08-10T04:28:32.176Z,6.60
2018-08-10T04:31:00.891Z,5.77
2018-08-10T04:33:29.688Z,5.93
2018-08-10T04:35:58.214Z,5.33
2018-08-10T04:38:29.782Z,5.13
2018-08-10T04:41:03.506Z,4.70
2018-08-10T04:43:35.589Z,4.63
2018-08-10T04:46:05.664Z,5.30
2018-08-10T04:48:42.110Z,4.20
2018-08-10T04:51:14.452Z,4.53
2018-08-10T04:53:47.263Z,4.40
2018-08-10T04:56:17.197Z,3.83
2018-08-10T04:58:51.057Z,4.73
2018-08-10T05:04:04.090Z,3.40
2018-08-10T05:06:36.994Z,4.00
2018-08-10T05:09:12.452Z,3.77
2018-08-10T05:11:43.447Z,3.53
2018-08-10T05:14:14.255Z,3.90
2018-08-10T05:16:46.521Z,4.20
2018-08-10T05:19:17.615Z,3.93
2018-08-10T05:21:58.754Z,4.23
2018-08-10T05:24:29.825Z,3.67
2018-08-10T05:27:00.483Z,4.13
2018-08-10T05:29:34.286Z,4.67
2018-08-10T05:32:05.529Z,4.23
2018-08-10T05:34:35.930Z,3.77
2018-08-10T05:37:06.658Z,3.70
2018-08-10T05:39:36.575Z,4.90
2018-08-10T05:42:07.016Z,5.23
2018-08-10T05:44:38.534Z,4.90
2018-08-10T05:47:08.473Z,4.67
2018-08-10T05:49:38.749Z,5.40
2018-08-10T05:52:08.871Z,5.10
2018-08-10T05:54:38.958Z,4.70
2018-08-10T05:57:10.048Z,4.80
2018-08-10T05:59:40.157Z,6.13
2018-08-10T06:02:10.008Z,5.07
2018-08-10T06:04:44.306Z,4.90
2018-08-10T06:07:19.291Z,4.70
2018-08-10T06:09:51.386Z,4.43
2018-08-10T06:12:27.866Z,4.37
2018-08-10T06:15:05.960Z,4.47
2018-08-10T06:17:36.093Z,4.03
2018-08-10T06:20:05.679Z,4.40
2018-08-10T06:22:34.126Z,3.70
2018-08-10T06:25:02.532Z,4.27
2018-08-10T06:27:30.862Z,4.00
2018-08-10T06:29:59.253Z,3.80
2018-08-10T06:32:27.624Z,3.77
2018-08-10T06:34:56.191Z,4.00
2018-08-10T06:37:24.608Z,3.77
2018-08-10T06:39:52.959Z,4.07
2018-08-10T06:42:21.372Z,3.67
2018-08-10T06:44:49.717Z,3.60
2018-08-10T06:47:18.079Z,3.80
2018-08-10T06:49:46.463Z,3.10
2018-08-10T06:52:14.792Z,2.37
2018-08-10T06:54:43.152Z,2.70
2018-08-10T06:57:11.525Z,2.80
2018-08-10T06:59:39.884Z,2.63
2018-08-10T07:02:08.281Z,2.30
2018-08-10T07:04:36.662Z,2.43
2018-08-10T07:07:05.263Z,2.50
2018-08-10T07:09:33.652Z,2.67
2018-08-10T07:12:01.958Z,2.20
2018-08-10T07:14:30.339Z,2.23
2018-08-10T07:16:58.675Z,2.40
2018-08-10T07:19:27.043Z,2.50
2018-08-10T07:21:55.409Z,2.47
2018-08-10T07:24:23.770Z,2.03
2018-08-10T07:26:52.201Z,2.77
2018-08-10T07:29:20.592Z,2.57
2018-08-10T07:31:48.994Z,2.70
2018-08-10T07:34:17.336Z,1.90
2018-08-10T07:36:45.762Z,2.17
2018-08-10T07:39:14.136Z,1.70
2018-08-10T07:41:42.974Z,2.10
2018-08-10T07:44:11.381Z,2.50
2018-08-10T07:46:39.916Z,1.93
2018-08-10T07:49:08.306Z,3.23
2018-08-10T07:51:36.728Z,2.10
2018-08-10T07:54:05.098Z,2.80
2018-08-10T07:56:33.565Z,2.50
2018-08-10T07:59:01.954Z,2.20
2018-08-10T08:01:30.371Z,2.60
2018-08-10T08:03:58.789Z,1.70
2018-08-10T08:06:27.235Z,2.00
2018-08-10T08:08:55.604Z,1.87
2018-08-10T08:11:23.979Z,1.80
2018-08-10T08:13:52.396Z,1.90
2018-08-10T08:16:20.886Z,1.70
2018-08-10T08:18:49.308Z,1.40
2018-08-10T08:21:17.711Z,1.80
2018-08-10T08:23:46.141Z,1.53
2018-08-10T08:26:14.510Z,1.73
2018-08-10T08:28:42.916Z,1.33
2018-08-10T08:31:11.379Z,1.50
2018-08-10T08:33:50.930Z,2.07
2018-08-10T08:36:19.347Z,1.80
2018-08-10T08:41:05.244Z,1.63
2018-08-10T08:45:47.036Z,1.80
2018-08-10T08:48:15.194Z,1.60
2018-08-10T08:50:44.904Z,1.80
2018-08-10T08:53:13.256Z,1.70
2018-08-10T08:55:51.818Z,1.83
2018-08-10T08:58:20.319Z,1.87
2018-08-10T09:00:48.687Z,1.70
2018-08-10T09:03:28.884Z,1.60
2018-08-10T09:05:57.674Z,2.00
2018-08-10T09:08:26.109Z,1.80
2018-08-10T09:10:55.625Z,1.80
2018-08-10T09:13:24.412Z,1.50
2018-08-10T09:15:52.870Z,2.10
2018-08-10T09:18:21.304Z,1.60
2018-08-10T09:20:49.720Z,1.50
2018-08-10T09:23:18.002Z,2.23
2018-08-10T09:25:46.362Z,1.80
2018-08-10T09:28:14.670Z,2.03
2018-08-10T09:30:43.055Z,1.80
2018-08-10T09:33:11.498Z,2.07
2018-08-10T09:35:39.946Z,1.97
2018-08-10T09:38:08.388Z,2.17
2018-08-10T09:40:36.767Z,2.07
2018-08-10T09:43:05.429Z,1.33
2018-08-10T09:45:33.840Z,1.73
2018-08-10T09:48:02.283Z,1.30
2018-08-10T09:51:01.629Z,1.70
2018-08-10T09:53:29.998Z,1.37
2018-08-10T09:55:58.325Z,1.50
2018-08-10T09:58:26.671Z,1.10
2018-08-10T10:00:55.046Z,1.30
2018-08-10T10:03:24.696Z,1.50
2018-08-10T10:05:54.280Z,1.90
2018-08-10T10:08:23.228Z,1.40
2018-08-10T10:10:51.500Z,1.00
2018-08-10T10:13:19.759Z,1.43
2018-08-10T10:15:48.027Z,1.50
2018-08-10T10:18:16.976Z,0.90
2018-08-10T10:20:45.988Z,1.20
2018-08-10T10:23:14.284Z,1.17
2018-08-10T10:25:42.547Z,1.13
2018-08-10T10:28:10.953Z,1.13
2018-08-10T10:30:39.304Z,1.23
2018-08-10T10:33:07.538Z,1.70
2018-08-10T10:35:35.793Z,1.10
2018-08-10T10:38:04.036Z,1.33
2018-08-10T10:40:32.346Z,1.40
2018-08-10T10:43:00.659Z,1.17
2018-08-10T10:45:29.011Z,1.10
2018-08-10T10:47:57.319Z,1.10
2018-08-10T10:50:25.771Z,0.77
2018-08-10T10:52:54.035Z,0.93
2018-08-10T10:55:22.304Z,1.10
2018-08-10T10:57:50.559Z,1.03
2018-08-10T11:00:20.158Z,1.20
2018-08-10T11:05:41.886Z,0.80
2018-08-10T11:08:11.297Z,1.23
2018-08-10T11:10:39.579Z,0.80
2018-08-10T11:13:08.071Z,1.00
2018-08-10T11:15:36.478Z,0.97
2018-08-10T11:18:04.931Z,1.10
2018-08-10T11:20:34.396Z,0.93
2018-08-10T11:23:02.670Z,0.90
2018-08-10T11:25:31.019Z,0.90
2018-08-10T11:27:59.278Z,1.10
2018-08-10T11:30:27.704Z,1.30
2018-08-10T11:32:56.048Z,1.00
2018-08-10T11:35:24.456Z,0.90
2018-08-10T11:37:52.722Z,1.07
2018-08-10T11:40:21.031Z,0.90
2018-08-10T11:42:49.424Z,0.90
2018-08-10T11:45:18.449Z,0.83
2018-08-10T11:47:46.855Z,0.80
2018-08-10T11:50:15.176Z,0.73
2018-08-10T11:52:43.465Z,1.00
2018-08-10T11:55:16.232Z,0.93
2018-08-10T11:57:45.093Z,0.80
2018-08-10T12:00:14.890Z,1.23
2018-08-10T12:02:43.686Z,1.10
2018-08-10T12:05:13.056Z,0.90
2018-08-10T12:07:41.830Z,0.80
2018-08-10T12:10:10.318Z,1.07
2018-08-10T12:12:38.890Z,1.03
2018-08-10T12:15:09.362Z,1.00
2018-08-10T12:17:37.971Z,1.30
2018-08-10T12:20:06.540Z,0.97
2018-08-10T12:22:34.898Z,1.20
2018-08-10T12:25:03.266Z,0.97
2018-08-10T12:27:38.347Z,0.90
2018-08-10T12:30:08.450Z,0.97
2018-08-10T12:32:36.852Z,1.07
2018-08-10T12:35:05.235Z,1.00
2018-08-10T12:37:33.640Z,1.40
2018-08-10T12:40:02.180Z,1.20
2018-08-10T12:42:30.591Z,1.40
2018-08-10T12:44:58.980Z,1.50
2018-08-10T12:47:27.408Z,1.40
2018-08-10T12:49:55.997Z,1.30
2018-08-10T12:52:31.077Z,1.57
2018-08-10T12:54:59.539Z,1.20
2018-08-10T12:57:28.103Z,1.20
2018-08-10T12:59:56.782Z,1.30
2018-08-10T13:02:25.271Z,1.20
2018-08-10T13:04:53.748Z,1.33
2018-08-10T13:07:22.449Z,1.33
2018-08-10T13:09:50.897Z,1.27
2018-08-10T13:12:19.381Z,1.10
2018-08-10T13:14:47.811Z,1.50
2018-08-10T13:17:16.599Z,1.30
2018-08-10T13:19:45.099Z,1.40
2018-08-10T13:22:13.602Z,1.37
2018-08-10T13:24:41.975Z,1.20
2018-08-10T13:27:10.321Z,1.07
2018-08-10T13:29:38.639Z,1.10
2018-08-10T13:32:07.137Z,0.90
2018-08-10T13:34:35.553Z,1.10
2018-08-10T13:37:03.960Z,0.90
2018-08-10T13:39:32.336Z,1.30
2018-08-10T13:42:00.867Z,1.00
2018-08-10T13:44:29.215Z,0.70
2018-08-10T13:47:01.575Z,0.80
2018-08-10T13:49:31.112Z,0.90
2018-08-10T13:51:59.546Z,1.00
2018-08-10T13:54:28.058Z,1.10
2018-08-10T13:56:56.488Z,1.20
2018-08-10T13:59:24.973Z,0.80
2018-08-10T14:01:53.413Z,1.00
2018-08-10T14:04:21.874Z,0.97
2018-08-10T14:06:50.895Z,1.00
2018-08-10T14:09:19.362Z,1.00
2018-08-10T14:11:47.921Z,1.17
2018-08-10T14:14:17.495Z,0.73
2018-08-10T14:16:45.952Z,0.90
2018-08-10T14:19:14.449Z,1.20
2018-08-10T14:21:43.035Z,1.20
2018-08-10T14:24:11.535Z,0.90
2018-08-10T14:26:40.024Z,0.87
2018-08-10T14:29:08.653Z,1.00
2018-08-10T14:31:37.172Z,1.07
2018-08-10T14:34:05.596Z,1.20
2018-08-10T14:36:33.984Z,1.30
2018-08-10T14:39:02.370Z,0.90
2018-08-10T14:41:30.975Z,1.00
2018-08-10T14:43:59.445Z,1.27
2018-08-10T14:46:27.898Z,0.97
2018-08-10T14:48:56.313Z,1.80
2018-08-10T14:51:24.724Z,1.33
2018-08-10T14:53:53.036Z,1.00
2018-08-10T14:56:21.335Z,1.13
2018-08-10T14:58:49.772Z,0.90
2018-08-10T15:01:18.147Z,1.00
2018-08-10T15:03:46.540Z,1.03
2018-08-10T15:06:14.871Z,1.07
2018-08-10T15:08:46.134Z,1.30
2018-08-10T15:11:14.750Z,1.23
2018-08-10T15:13:43.117Z,1.23
2018-08-10T15:16:11.533Z,1.00
2018-08-10T15:18:39.941Z,1.20
2018-08-10T15:21:08.633Z,0.90
2018-08-10T15:23:37.108Z,1.40
2018-08-10T15:26:06.576Z,1.17
2018-08-10T15:28:35.024Z,1.20
2018-08-10T15:31:03.409Z,1.60
2018-08-10T15:33:32.090Z,1.47
2018-08-10T15:36:00.596Z,1.33
2018-08-10T15:38:29.133Z,1.00
2018-08-10T15:40:57.672Z,1.50
2018-08-10T15:43:26.089Z,1.70
2018-08-10T15:45:54.523Z,1.23
2018-08-10T15:48:22.939Z,1.17
2018-08-10T15:50:51.276Z,1.17
2018-08-10T15:53:19.654Z,1.00
2018-08-10T15:55:48.005Z,0.90
2018-08-10T15:58:16.483Z,1.70
2018-08-10T16:00:44.810Z,1.40
2018-08-10T16:03:13.195Z,1.40
2018-08-10T16:05:41.458Z,1.40
2018-08-10T16:08:09.902Z,1.50
2018-08-10T16:10:38.233Z,1.83
2018-08-10T16:13:06.953Z,1.57
2018-08-10T16:15:35.378Z,1.60
2018-08-10T16:18:03.694Z,1.70
2018-08-10T16:20:31.956Z,1.50
2018-08-10T16:23:00.283Z,1.50
2018-08-10T16:25:28.711Z,1.97
2018-08-10T16:27:56.982Z,1.80
2018-08-10T16:30:25.397Z,1.50
2018-08-10T16:32:53.680Z,1.77
2018-08-10T16:35:21.966Z,1.23
2018-08-10T16:37:50.435Z,1.80
2018-08-10T16:40:19.659Z,1.43
2018-08-10T16:42:48.220Z,1.60
2018-08-10T16:45:16.492Z,1.90
2018-08-10T16:47:45.927Z,1.80
2018-08-10T16:50:16.008Z,1.50
2018-08-10T16:52:44.848Z,1.37
2018-08-10T16:55:15.631Z,1.70
2018-08-10T16:57:44.812Z,1.60
2018-08-10T17:00:18.778Z,1.70
2018-08-10T17:02:47.514Z,1.73
2018-08-10T17:05:16.026Z,1.53
2018-08-10T17:07:44.608Z,1.47
2018-08-10T17:10:13.404Z,1.70
2018-08-10T17:12:47.242Z,1.30
2018-08-10T17:15:17.405Z,1.57
2018-08-10T17:17:46.619Z,1.37
2018-08-10T17:20:15.527Z,1.90
2018-08-10T17:22:49.510Z,1.70
2018-08-10T17:25:19.057Z,1.70
2018-08-10T17:27:47.438Z,1.37
2018-08-10T17:30:17.255Z,1.30
2018-08-10T17:32:45.617Z,1.53
2018-08-10T17:35:14.969Z,1.90
2018-08-10T17:37:44.125Z,1.50
2018-08-10T17:40:12.427Z,1.57
2018-08-10T17:42:40.719Z,1.30
2018-08-10T17:45:11.101Z,1.53
2018-08-10T17:47:39.402Z,1.30
2018-08-10T17:50:12.552Z,1.03
2018-08-10T17:52:43.768Z,1.57
2018-08-10T17:55:12.491Z,1.40
2018-08-10T17:57:40.815Z,1.40
2018-08-10T18:00:11.366Z,1.13
2018-08-10T18:02:39.632Z,1.13
2018-08-10T18:05:09.950Z,1.37
2018-08-10T18:07:38.242Z,1.53
2018-08-10T18:10:06.783Z,1.40
2018-08-10T18:12:35.087Z,1.53
2018-08-10T18:15:03.478Z,1.23
2018-08-10T18:17:31.759Z,1.50
2018-08-10T18:20:00.050Z,1.40
2018-08-10T18:22:28.303Z,1.03
2018-08-10T18:24:56.589Z,1.20
2018-08-10T18:27:25.011Z,1.47
2018-08-10T18:29:53.264Z,1.33
2018-08-10T18:32:21.715Z,1.33
2018-08-10T18:34:49.984Z,1.43
2018-08-10T18:37:18.259Z,1.30
2018-08-10T18:39:46.691Z,1.50
2018-08-10T18:42:14.979Z,1.30
2018-08-10T18:44:43.274Z,1.40
2018-08-10T18:47:11.566Z,1.07
2018-08-10T18:49:39.930Z,1.47
2018-08-10T18:52:08.185Z,1.20
2018-08-10T18:54:36.649Z,1.37
2018-08-10T18:57:04.980Z,1.63
2018-08-10T18:59:33.198Z,1.70
2018-08-10T19:02:01.480Z,1.77
2018-08-10T19:04:29.825Z,1.67
2018-08-10T19:06:58.165Z,1.20
2018-08-10T19:09:26.475Z,1.57
2018-08-10T19:11:54.756Z,1.40
2018-08-10T19:14:23.114Z,1.80
2018-08-10T19:16:51.407Z,1.80
2018-08-10T19:19:19.751Z,1.50
2018-08-10T19:21:48.096Z,1.47
2018-08-10T19:24:16.435Z,1.73
2018-08-10T19:26:44.716Z,2.17
2018-08-10T19:29:13.012Z,1.73
2018-08-10T19:31:41.350Z,1.77
2018-08-10T19:34:09.591Z,2.67
2018-08-10T19:36:37.940Z,2.30
2018-08-10T19:39:08.229Z,1.63
2018-08-10T19:41:36.685Z,1.80
2018-08-10T19:44:05.030Z,1.50
2018-08-10T19:46:33.412Z,1.90
2018-08-10T19:49:01.903Z,1.77
2018-08-10T19:51:30.245Z,1.67
2018-08-10T19:53:58.553Z,2.47
2018-08-10T19:56:26.856Z,2.00
2018-08-10T19:58:55.203Z,2.10
2018-08-10T20:01:23.523Z,2.40
2018-08-10T20:03:51.786Z,1.40
2018-08-10T20:06:20.124Z,2.00
2018-08-10T20:08:48.411Z,1.40
2018-08-10T20:11:16.671Z,1.97
2018-08-10T20:13:44.960Z,1.60
2018-08-10T20:16:13.296Z,1.80
2018-08-10T20:18:42.850Z,1.60
2018-08-10T20:21:11.180Z,1.00
2018-08-10T20:23:40.899Z,1.27
2018-08-10T20:26:12.112Z,1.30
2018-08-10T20:28:41.915Z,1.80
2018-08-10T20:31:12.220Z,1.40
2018-08-10T20:33:42.480Z,1.53
2018-08-10T20:36:13.659Z,1.40
2018-08-10T20:38:44.595Z,1.20
2018-08-10T20:41:13.132Z,1.40
2018-08-10T20:43:41.420Z,1.27
2018-08-10T20:46:09.818Z,1.40
2018-08-10T20:48:38.107Z,1.37
2018-08-10T20:51:06.363Z,2.13
2018-08-10T20:53:35.714Z,2.53
2018-08-10T20:56:04.175Z,1.83
2018-08-10T20:58:32.379Z,1.70
2018-08-10T21:01:00.744Z,2.10
2018-08-10T21:03:29.023Z,2.00
2018-08-10T21:05:57.384Z,1.80
2018-08-10T21:08:25.833Z,1.53
2018-08-10T21:10:54.219Z,1.50
2018-08-10T21:13:22.520Z,1.50
2018-08-10T21:15:50.831Z,1.30
2018-08-10T21:18:19.142Z,1.70
2018-08-10T21:20:47.496Z,1.30
2018-08-10T21:23:15.950Z,1.47
2018-08-10T21:25:44.251Z,1.20
2018-08-10T21:28:12.619Z,1.50
2018-08-10T21:30:40.870Z,1.27
2018-08-10T21:33:09.172Z,1.40
2018-08-10T21:35:37.488Z,1.50
2018-08-10T21:38:05.776Z,1.50
2018-08-10T21:40:34.077Z,1.60
2018-08-10T21:43:02.318Z,1.57
2018-08-10T21:45:30.583Z,1.20
2018-08-10T21:47:58.938Z,1.50
2018-08-10T21:50:27.364Z,1.20
2018-08-10T21:52:56.688Z,1.60
2018-08-10T21:55:25.593Z,1.20
2018-08-10T21:57:54.000Z,1.23
2018-08-10T22:00:40.356Z,1.50
2018-08-10T22:03:10.083Z,1.30
2018-08-10T22:05:38.479Z,1.90
2018-08-10T22:08:06.735Z,1.37
2018-08-10T22:10:34.991Z,1.20
2018-08-10T22:13:03.327Z,1.40
2018-08-10T22:15:37.056Z,1.20
2018-08-10T22:18:11.221Z,1.40
2018-08-10T22:20:39.686Z,1.20
2018-08-10T22:23:08.159Z,1.60
2018-08-10T22:25:36.547Z,1.00
2018-08-10T22:28:04.988Z,1.60
2018-08-10T22:30:33.439Z,1.40
2018-08-10T22:33:01.915Z,1.10
2018-08-10T22:35:30.302Z,1.13
2018-08-10T22:37:58.679Z,1.20
2018-08-10T22:40:27.152Z,1.40
2018-08-10T22:42:55.523Z,1.10
2018-08-10T22:45:23.996Z,1.50
2018-08-10T22:47:52.412Z,0.80
2018-08-10T22:50:20.799Z,1.10
2018-08-10T22:52:49.236Z,1.20
2018-08-10T22:55:17.615Z,1.33
2018-08-10T22:57:46.028Z,1.10
2018-08-10T23:00:14.601Z,1.43
2018-08-10T23:02:42.982Z,1.40
2018-08-10T23:05:11.470Z,1.13
2018-08-10T23:07:39.723Z,1.20
2018-08-10T23:10:09.687Z,1.40
2018-08-10T23:12:38.131Z,1.30
2018-08-10T23:15:07.080Z,1.20
2018-08-10T23:17:35.511Z,1.67
2018-08-10T23:20:04.887Z,1.10
2018-08-10T23:22:33.238Z,1.60
2018-08-10T23:25:01.614Z,1.60
2018-08-10T23:27:29.938Z,1.13
2018-08-10T23:29:58.264Z,1.30
2018-08-10T23:32:26.637Z,1.30
2018-08-10T23:34:55.012Z,1.40
2018-08-10T23:37:23.411Z,1.30
2018-08-10T23:39:51.731Z,1.43
2018-08-10T23:42:20.998Z,1.90
2018-08-10T23:44:49.337Z,1.30
2018-08-10T23:47:17.894Z,1.27
2018-08-10T23:49:46.239Z,1.10
2018-08-10T23:52:14.642Z,1.50
2018-08-10T23:54:42.999Z,1.40
2018-08-10T23:57:11.343Z,1.17
2018-08-10T23:59:39.700Z,1.53
